sensor_id;sensor_type;location;lat;lon;timestamp;P1;durP1;ratioP1;P2;durP2;ratioP2
35602;SDS011;21725;50.836;4.368;2023-06-22T00:02:38;6.05;;;3.10;;
35602;SDS011;21725;50.836;4.368;2023-06-22T00:05:39;6.32;;;3.08;;
35602;SDS011;21725;50.836;4.368;2023-06-22T00:08:40;6.30;;;2.80;;
35602;SDS011;21725;50.836;4.368;2023-06-22T00:11:41;4.65;;;2.75;;
35602;SDS011;21725;50.836;4.368;2023-06-22T00:14:42;5.47;;;3.00;;
35602;SDS011;21725;50.836;4.368;2023-06-22T00:17:42;6.15;;;3.40;;
35602;SDS011;21725;50.836;4.368;2023-06-22T00:20:43;5.35;;;3.38;;
35602;SDS011;21725;50.836;4.368;2023-06-22T00:23:46;5.80;;;3.10;;
35602;SDS011;21725;50.836;4.368;2023-06-22T00:26:50;5.95;;;3.83;;
35602;SDS011;21725;50.836;4.368;2023-06-22T00:29:50;6.35;;;3.13;;
35602;SDS011;21725;50.836;4.368;2023-06-22T00:32:51;8.48;;;4.13;;
35602;SDS011;21725;50.836;4.368;2023-06-22T00:35:53;8.27;;;3.35;;
35602;SDS011;21725;50.836;4.368;2023-06-22T00:38:55;6.80;;;3.88;;
35602;SDS011;21725;50.836;4.368;2023-06-22T00:41:55;6.55;;;3.85;;
35602;SDS011;21725;50.836;4.368;2023-06-22T00:44:57;6.10;;;3.78;;
35602;SDS011;21725;50.836;4.368;2023-06-22T00:47:58;9.30;;;3.55;;
35602;SDS011;21725;50.836;4.368;2023-06-22T00:51:00;8.00;;;3.95;;
35602;SDS011;21725;50.836;4.368;2023-06-22T00:54:01;8.88;;;3.70;;
35602;SDS011;21725;50.836;4.368;2023-06-22T00:57:01;6.78;;;3.70;;
35602;SDS011;21725;50.836;4.368;2023-06-22T01:00:02;8.75;;;3.95;;
35602;SDS011;21725;50.836;4.368;2023-06-22T01:03:08;6.63;;;3.92;;
35602;SDS011;21725;50.836;4.368;2023-06-22T01:06:10;7.93;;;3.88;;
35602;SDS011;21725;50.836;4.368;2023-06-22T01:09:20;5.90;;;3.08;;
35602;SDS011;21725;50.836;4.368;2023-06-22T01:12:25;6.43;;;4.05;;
35602;SDS011;21725;50.836;4.368;2023-06-22T01:15:41;6.88;;;4.00;;
35602;SDS011;21725;50.836;4.368;2023-06-22T01:18:50;6.32;;;3.63;;
35602;SDS011;21725;50.836;4.368;2023-06-22T01:21:55;7.07;;;3.85;;
35602;SDS011;21725;50.836;4.368;2023-06-22T01:25:09;5.68;;;3.70;;
35602;SDS011;21725;50.836;4.368;2023-06-22T01:31:41;7.03;;;4.45;;
35602;SDS011;21725;50.836;4.368;2023-06-22T01:34:43;6.85;;;4.40;;
35602;SDS011;21725;50.836;4.368;2023-06-22T01:37:46;6.88;;;4.22;;
35602;SDS011;21725;50.836;4.368;2023-06-22T01:40:48;7.85;;;4.18;;
35602;SDS011;21725;50.836;4.368;2023-06-22T01:43:49;7.10;;;4.55;;
35602;SDS011;21725;50.836;4.368;2023-06-22T01:46:51;6.55;;;4.55;;
35602;SDS011;21725;50.836;4.368;2023-06-22T01:49:53;8.38;;;4.47;;
35602;SDS011;21725;50.836;4.368;2023-06-22T01:52:54;9.50;;;5.32;;
35602;SDS011;21725;50.836;4.368;2023-06-22T01:55:55;6.68;;;4.97;;
35602;SDS011;21725;50.836;4.368;2023-06-22T02:05:44;7.60;;;5.40;;
35602;SDS011;21725;50.836;4.368;2023-06-22T02:08:51;6.93;;;4.88;;
35602;SDS011;21725;50.836;4.368;2023-06-22T02:12:01;13.10;;;5.22;;
35602;SDS011;21725;50.836;4.368;2023-06-22T02:15:04;7.55;;;4.70;;
35602;SDS011;21725;50.836;4.368;2023-06-22T02:18:05;8.18;;;4.97;;
35602;SDS011;21725;50.836;4.368;2023-06-22T02:21:06;8.10;;;5.22;;
35602;SDS011;21725;50.836;4.368;2023-06-22T02:24:07;8.57;;;4.80;;
35602;SDS011;21725;50.836;4.368;2023-06-22T02:27:08;6.85;;;4.60;;
35602;SDS011;21725;50.836;4.368;2023-06-22T02:30:09;8.63;;;5.38;;
35602;SDS011;21725;50.836;4.368;2023-06-22T02:33:10;9.07;;;5.18;;
35602;SDS011;21725;50.836;4.368;2023-06-22T02:36:11;9.63;;;5.50;;
35602;SDS011;21725;50.836;4.368;2023-06-22T02:39:13;10.82;;;5.20;;
35602;SDS011;21725;50.836;4.368;2023-06-22T02:42:13;7.32;;;4.80;;
35602;SDS011;21725;50.836;4.368;2023-06-22T02:45:15;7.72;;;4.97;;
35602;SDS011;21725;50.836;4.368;2023-06-22T02:48:16;11.38;;;4.95;;
35602;SDS011;21725;50.836;4.368;2023-06-22T02:51:16;8.23;;;5.35;;
35602;SDS011;21725;50.836;4.368;2023-06-22T02:54:17;7.82;;;5.10;;
35602;SDS011;21725;50.836;4.368;2023-06-22T02:57:18;8.68;;;4.72;;
35602;SDS011;21725;50.836;4.368;2023-06-22T03:00:19;10.23;;;4.50;;
35602;SDS011;21725;50.836;4.368;2023-06-22T03:03:19;7.47;;;5.15;;
35602;SDS011;21725;50.836;4.368;2023-06-22T03:06:21;9.32;;;4.97;;
35602;SDS011;21725;50.836;4.368;2023-06-22T03:09:28;9.45;;;6.53;;
35602;SDS011;21725;50.836;4.368;2023-06-22T03:12:29;10.98;;;5.22;;
35602;SDS011;21725;50.836;4.368;2023-06-22T03:15:29;8.10;;;5.00;;
35602;SDS011;21725;50.836;4.368;2023-06-22T03:18:31;9.55;;;5.53;;
35602;SDS011;21725;50.836;4.368;2023-06-22T03:32:48;8.65;;;5.82;;
35602;SDS011;21725;50.836;4.368;2023-06-22T03:35:49;9.35;;;5.25;;
35602;SDS011;21725;50.836;4.368;2023-06-22T03:38:50;7.72;;;4.68;;
35602;SDS011;21725;50.836;4.368;2023-06-22T03:41:51;12.00;;;6.60;;
35602;SDS011;21725;50.836;4.368;2023-06-22T03:44:52;9.00;;;5.30;;
35602;SDS011;21725;50.836;4.368;2023-06-22T03:47:52;8.32;;;5.80;;
35602;SDS011;21725;50.836;4.368;2023-06-22T03:50:53;9.20;;;5.15;;
35602;SDS011;21725;50.836;4.368;2023-06-22T03:53:54;9.65;;;5.18;;
35602;SDS011;21725;50.836;4.368;2023-06-22T03:56:56;14.95;;;7.72;;
35602;SDS011;21725;50.836;4.368;2023-06-22T03:59:57;9.82;;;6.07;;
35602;SDS011;21725;50.836;4.368;2023-06-22T04:02:58;10.05;;;6.13;;
35602;SDS011;21725;50.836;4.368;2023-06-22T04:05:59;10.82;;;6.57;;
35602;SDS011;21725;50.836;4.368;2023-06-22T04:08:59;9.45;;;6.30;;
35602;SDS011;21725;50.836;4.368;2023-06-22T04:12:01;12.10;;;6.90;;
35602;SDS011;21725;50.836;4.368;2023-06-22T04:15:02;10.75;;;5.80;;
35602;SDS011;21725;50.836;4.368;2023-06-22T04:18:03;8.98;;;6.97;;
35602;SDS011;21725;50.836;4.368;2023-06-22T04:21:04;9.80;;;6.68;;
35602;SDS011;21725;50.836;4.368;2023-06-22T04:24:05;9.07;;;7.22;;
35602;SDS011;21725;50.836;4.368;2023-06-22T04:27:06;16.98;;;8.32;;
35602;SDS011;21725;50.836;4.368;2023-06-22T04:30:07;12.73;;;7.32;;
35602;SDS011;21725;50.836;4.368;2023-06-22T04:33:08;11.48;;;8.00;;
35602;SDS011;21725;50.836;4.368;2023-06-22T04:36:09;10.57;;;7.57;;
35602;SDS011;21725;50.836;4.368;2023-06-22T04:39:13;10.10;;;7.70;;
35602;SDS011;21725;50.836;4.368;2023-06-22T04:42:15;12.05;;;7.60;;
35602;SDS011;21725;50.836;4.368;2023-06-22T04:45:15;11.50;;;8.98;;
35602;SDS011;21725;50.836;4.368;2023-06-22T04:48:16;13.48;;;8.77;;
35602;SDS011;21725;50.836;4.368;2023-06-22T04:51:17;11.60;;;8.15;;
35602;SDS011;21725;50.836;4.368;2023-06-22T04:54:21;10.27;;;7.13;;
35602;SDS011;21725;50.836;4.368;2023-06-22T04:57:22;12.40;;;7.28;;
35602;SDS011;21725;50.836;4.368;2023-06-22T05:00:30;11.15;;;7.95;;
35602;SDS011;21725;50.836;4.368;2023-06-22T05:03:31;13.43;;;8.82;;
35602;SDS011;21725;50.836;4.368;2023-06-22T05:06:33;16.20;;;8.75;;
35602;SDS011;21725;50.836;4.368;2023-06-22T05:09:33;12.15;;;8.07;;
35602;SDS011;21725;50.836;4.368;2023-06-22T05:12:34;15.55;;;8.40;;
35602;SDS011;21725;50.836;4.368;2023-06-22T05:15:35;12.68;;;9.32;;
35602;SDS011;21725;50.836;4.368;2023-06-22T05:18:40;13.13;;;8.85;;
35602;SDS011;21725;50.836;4.368;2023-06-22T05:21:41;12.52;;;9.43;;
35602;SDS011;21725;50.836;4.368;2023-06-22T05:24:42;14.75;;;9.52;;
35602;SDS011;21725;50.836;4.368;2023-06-22T05:27:43;13.60;;;10.00;;
35602;SDS011;21725;50.836;4.368;2023-06-22T05:30:44;15.48;;;8.98;;
35602;SDS011;21725;50.836;4.368;2023-06-22T05:33:45;14.30;;;10.07;;
35602;SDS011;21725;50.836;4.368;2023-06-22T05:36:47;13.85;;;9.98;;
35602;SDS011;21725;50.836;4.368;2023-06-22T05:39:47;16.42;;;10.88;;
35602;SDS011;21725;50.836;4.368;2023-06-22T05:42:48;20.17;;;11.88;;
35602;SDS011;21725;50.836;4.368;2023-06-22T05:45:49;18.58;;;12.82;;
35602;SDS011;21725;50.836;4.368;2023-06-22T05:48:50;22.05;;;12.65;;
35602;SDS011;21725;50.836;4.368;2023-06-22T05:51:50;27.13;;;12.55;;
35602;SDS011;21725;50.836;4.368;2023-06-22T05:54:51;17.77;;;11.02;;
35602;SDS011;21725;50.836;4.368;2023-06-22T05:57:52;15.90;;;11.73;;
35602;SDS011;21725;50.836;4.368;2023-06-22T06:00:52;20.77;;;12.38;;
35602;SDS011;21725;50.836;4.368;2023-06-22T06:03:53;16.20;;;12.05;;
35602;SDS011;21725;50.836;4.368;2023-06-22T06:06:54;15.10;;;12.45;;
35602;SDS011;21725;50.836;4.368;2023-06-22T06:09:55;19.13;;;13.73;;
35602;SDS011;21725;50.836;4.368;2023-06-22T06:12:55;17.55;;;13.05;;
35602;SDS011;21725;50.836;4.368;2023-06-22T06:15:56;19.35;;;12.85;;
35602;SDS011;21725;50.836;4.368;2023-06-22T06:18:57;18.15;;;12.07;;
35602;SDS011;21725;50.836;4.368;2023-06-22T06:21:58;18.50;;;12.23;;
35602;SDS011;21725;50.836;4.368;2023-06-22T06:24:59;15.68;;;10.95;;
35602;SDS011;21725;50.836;4.368;2023-06-22T06:27:59;17.85;;;11.45;;
35602;SDS011;21725;50.836;4.368;2023-06-22T06:31:00;20.90;;;12.65;;
35602;SDS011;21725;50.836;4.368;2023-06-22T06:34:01;20.55;;;12.27;;
35602;SDS011;21725;50.836;4.368;2023-06-22T06:37:02;16.60;;;13.25;;
35602;SDS011;21725;50.836;4.368;2023-06-22T06:40:04;21.05;;;13.30;;
35602;SDS011;21725;50.836;4.368;2023-06-22T06:43:08;19.17;;;13.00;;
35602;SDS011;21725;50.836;4.368;2023-06-22T06:46:09;23.83;;;14.15;;
35602;SDS011;21725;50.836;4.368;2023-06-22T06:49:10;22.08;;;14.32;;
35602;SDS011;21725;50.836;4.368;2023-06-22T06:52:10;20.83;;;13.85;;
35602;SDS011;21725;50.836;4.368;2023-06-22T06:55:11;25.63;;;14.13;;
35602;SDS011;21725;50.836;4.368;2023-06-22T06:58:12;20.98;;;13.02;;
35602;SDS011;21725;50.836;4.368;2023-06-22T07:01:13;18.85;;;12.57;;
35602;SDS011;21725;50.836;4.368;2023-06-22T07:04:14;14.30;;;12.02;;
35602;SDS011;21725;50.836;4.368;2023-06-22T07:07:15;18.27;;;13.13;;
35602;SDS011;21725;50.836;4.368;2023-06-22T07:10:16;16.67;;;12.85;;
35602;SDS011;21725;50.836;4.368;2023-06-22T07:13:17;17.98;;;13.05;;
35602;SDS011;21725;50.836;4.368;2023-06-22T07:16:17;16.52;;;12.73;;
35602;SDS011;21725;50.836;4.368;2023-06-22T07:19:24;21.73;;;13.25;;
35602;SDS011;21725;50.836;4.368;2023-06-22T07:22:25;18.27;;;12.95;;
35602;SDS011;21725;50.836;4.368;2023-06-22T07:25:26;18.45;;;12.90;;
35602;SDS011;21725;50.836;4.368;2023-06-22T07:28:28;19.13;;;13.40;;
35602;SDS011;21725;50.836;4.368;2023-06-22T07:31:31;18.33;;;13.48;;
35602;SDS011;21725;50.836;4.368;2023-06-22T07:34:31;14.43;;;12.18;;
35602;SDS011;21725;50.836;4.368;2023-06-22T07:37:33;16.33;;;12.40;;
35602;SDS011;21725;50.836;4.368;2023-06-22T07:40:35;18.50;;;12.95;;
35602;SDS011;21725;50.836;4.368;2023-06-22T07:43:36;15.30;;;11.95;;
35602;SDS011;21725;50.836;4.368;2023-06-22T07:46:37;14.07;;;11.63;;
35602;SDS011;21725;50.836;4.368;2023-06-22T07:49:37;20.52;;;13.05;;
35602;SDS011;21725;50.836;4.368;2023-06-22T07:52:39;22.88;;;12.73;;
35602;SDS011;21725;50.836;4.368;2023-06-22T07:55:39;16.65;;;12.48;;
35602;SDS011;21725;50.836;4.368;2023-06-22T07:58:40;17.77;;;12.23;;
35602;SDS011;21725;50.836;4.368;2023-06-22T08:01:41;16.52;;;11.68;;
35602;SDS011;21725;50.836;4.368;2023-06-22T08:04:42;17.27;;;12.52;;
35602;SDS011;21725;50.836;4.368;2023-06-22T08:07:43;22.70;;;13.13;;
35602;SDS011;21725;50.836;4.368;2023-06-22T08:10:44;22.77;;;12.52;;
35602;SDS011;21725;50.836;4.368;2023-06-22T08:13:45;19.38;;;12.70;;
35602;SDS011;21725;50.836;4.368;2023-06-22T08:16:46;16.67;;;12.65;;
35602;SDS011;21725;50.836;4.368;2023-06-22T08:19:47;15.07;;;12.70;;
35602;SDS011;21725;50.836;4.368;2023-06-22T08:22:47;23.77;;;13.18;;
35602;SDS011;21725;50.836;4.368;2023-06-22T08:25:48;15.23;;;11.60;;
35602;SDS011;21725;50.836;4.368;2023-06-22T08:28:50;15.75;;;12.30;;
35602;SDS011;21725;50.836;4.368;2023-06-22T08:31:51;22.20;;;13.88;;
35602;SDS011;21725;50.836;4.368;2023-06-22T08:34:52;16.77;;;12.10;;
35602;SDS011;21725;50.836;4.368;2023-06-22T08:37:53;22.02;;;12.50;;
35602;SDS011;21725;50.836;4.368;2023-06-22T08:40:56;19.45;;;13.13;;
35602;SDS011;21725;50.836;4.368;2023-06-22T08:43:57;21.95;;;12.90;;
35602;SDS011;21725;50.836;4.368;2023-06-22T08:46:58;23.50;;;13.82;;
35602;SDS011;21725;50.836;4.368;2023-06-22T08:49:59;15.40;;;12.00;;
35602;SDS011;21725;50.836;4.368;2023-06-22T08:53:02;19.25;;;12.73;;
35602;SDS011;21725;50.836;4.368;2023-06-22T08:56:03;16.95;;;12.65;;
35602;SDS011;21725;50.836;4.368;2023-06-22T08:59:04;13.18;;;11.77;;
35602;SDS011;21725;50.836;4.368;2023-06-22T09:02:07;15.15;;;11.93;;
35602;SDS011;21725;50.836;4.368;2023-06-22T09:05:08;22.92;;;12.80;;
35602;SDS011;21725;50.836;4.368;2023-06-22T09:08:10;21.42;;;12.88;;
35602;SDS011;21725;50.836;4.368;2023-06-22T09:11:11;16.40;;;12.20;;
35602;SDS011;21725;50.836;4.368;2023-06-22T09:14:12;14.43;;;11.57;;
35602;SDS011;21725;50.836;4.368;2023-06-22T09:17:13;13.65;;;11.80;;
35602;SDS011;21725;50.836;4.368;2023-06-22T09:20:14;20.88;;;11.85;;
35602;SDS011;21725;50.836;4.368;2023-06-22T09:23:15;19.10;;;12.90;;
35602;SDS011;21725;50.836;4.368;2023-06-22T09:26:19;18.98;;;11.40;;
35602;SDS011;21725;50.836;4.368;2023-06-22T09:29:21;16.85;;;11.13;;
35602;SDS011;21725;50.836;4.368;2023-06-22T09:32:21;15.57;;;10.82;;
35602;SDS011;21725;50.836;4.368;2023-06-22T09:35:22;15.60;;;12.20;;
35602;SDS011;21725;50.836;4.368;2023-06-22T09:38:23;17.17;;;12.35;;
35602;SDS011;21725;50.836;4.368;2023-06-22T09:41:24;16.00;;;10.95;;
35602;SDS011;21725;50.836;4.368;2023-06-22T09:44:24;18.52;;;13.48;;
35602;SDS011;21725;50.836;4.368;2023-06-22T09:47:25;17.15;;;12.95;;
35602;SDS011;21725;50.836;4.368;2023-06-22T09:50:26;20.27;;;13.00;;
35602;SDS011;21725;50.836;4.368;2023-06-22T09:53:27;16.83;;;13.38;;
35602;SDS011;21725;50.836;4.368;2023-06-22T09:56:28;28.10;;;17.25;;
35602;SDS011;21725;50.836;4.368;2023-06-22T09:59:30;18.40;;;13.40;;
35602;SDS011;21725;50.836;4.368;2023-06-22T10:02:31;18.45;;;13.70;;
35602;SDS011;21725;50.836;4.368;2023-06-22T10:05:31;17.95;;;14.30;;
35602;SDS011;21725;50.836;4.368;2023-06-22T10:08:33;16.67;;;13.23;;
35602;SDS011;21725;50.836;4.368;2023-06-22T10:11:34;23.35;;;15.27;;
35602;SDS011;21725;50.836;4.368;2023-06-22T10:14:35;17.73;;;14.35;;
35602;SDS011;21725;50.836;4.368;2023-06-22T10:17:36;20.58;;;15.07;;
35602;SDS011;21725;50.836;4.368;2023-06-22T10:20:37;22.20;;;16.92;;
35602;SDS011;21725;50.836;4.368;2023-06-22T10:23:38;20.77;;;16.10;;
35602;SDS011;21725;50.836;4.368;2023-06-22T10:26:39;21.92;;;14.32;;
35602;SDS011;21725;50.836;4.368;2023-06-22T10:29:39;22.00;;;15.77;;
35602;SDS011;21725;50.836;4.368;2023-06-22T10:32:41;21.98;;;16.92;;
35602;SDS011;21725;50.836;4.368;2023-06-22T10:35:43;19.48;;;16.45;;
35602;SDS011;21725;50.836;4.368;2023-06-22T10:38:44;20.52;;;16.17;;
35602;SDS011;21725;50.836;4.368;2023-06-22T10:41:45;21.23;;;17.30;;
35602;SDS011;21725;50.836;4.368;2023-06-22T10:44:46;23.30;;;19.15;;
35602;SDS011;21725;50.836;4.368;2023-06-22T10:47:47;23.25;;;19.38;;
35602;SDS011;21725;50.836;4.368;2023-06-22T10:50:50;22.63;;;19.80;;
35602;SDS011;21725;50.836;4.368;2023-06-22T10:53:51;23.15;;;19.08;;
35602;SDS011;21725;50.836;4.368;2023-06-22T10:56:52;25.30;;;21.48;;
35602;SDS011;21725;50.836;4.368;2023-06-22T10:59:52;32.83;;;23.55;;
35602;SDS011;21725;50.836;4.368;2023-06-22T11:02:53;27.48;;;22.95;;
35602;SDS011;21725;50.836;4.368;2023-06-22T11:05:54;26.55;;;22.98;;
35602;SDS011;21725;50.836;4.368;2023-06-22T11:08:55;30.02;;;23.42;;
35602;SDS011;21725;50.836;4.368;2023-06-22T11:11:55;29.38;;;23.98;;
35602;SDS011;21725;50.836;4.368;2023-06-22T11:14:56;30.85;;;23.67;;
35602;SDS011;21725;50.836;4.368;2023-06-22T11:17:57;34.95;;;26.30;;
35602;SDS011;21725;50.836;4.368;2023-06-22T11:21:01;35.47;;;26.33;;
35602;SDS011;21725;50.836;4.368;2023-06-22T11:24:01;30.90;;;25.38;;
35602;SDS011;21725;50.836;4.368;2023-06-22T11:27:02;31.70;;;24.42;;
35602;SDS011;21725;50.836;4.368;2023-06-22T11:30:03;32.92;;;25.38;;
35602;SDS011;21725;50.836;4.368;2023-06-22T11:33:05;29.17;;;24.38;;
35602;SDS011;21725;50.836;4.368;2023-06-22T11:36:05;32.00;;;24.45;;
35602;SDS011;21725;50.836;4.368;2023-06-22T11:39:07;31.75;;;24.00;;
35602;SDS011;21725;50.836;4.368;2023-06-22T11:42:10;28.33;;;23.02;;
35602;SDS011;21725;50.836;4.368;2023-06-22T11:45:11;30.70;;;23.23;;
35602;SDS011;21725;50.836;4.368;2023-06-22T11:48:12;29.50;;;23.77;;
35602;SDS011;21725;50.836;4.368;2023-06-22T11:51:13;25.05;;;21.25;;
35602;SDS011;21725;50.836;4.368;2023-06-22T11:54:13;25.65;;;22.50;;
35602;SDS011;21725;50.836;4.368;2023-06-22T11:57:14;28.10;;;23.00;;
35602;SDS011;21725;50.836;4.368;2023-06-22T12:00:15;27.58;;;23.15;;
35602;SDS011;21725;50.836;4.368;2023-06-22T12:03:18;28.88;;;22.75;;
35602;SDS011;21725;50.836;4.368;2023-06-22T12:06:19;26.65;;;22.08;;
35602;SDS011;21725;50.836;4.368;2023-06-22T12:09:19;26.52;;;21.75;;
35602;SDS011;21725;50.836;4.368;2023-06-22T12:12:20;26.92;;;23.70;;
35602;SDS011;21725;50.836;4.368;2023-06-22T12:15:21;29.98;;;22.90;;
35602;SDS011;21725;50.836;4.368;2023-06-22T12:18:21;35.00;;;23.77;;
35602;SDS011;21725;50.836;4.368;2023-06-22T12:21:22;30.25;;;25.55;;
35602;SDS011;21725;50.836;4.368;2023-06-22T12:24:23;30.40;;;23.90;;
35602;SDS011;21725;50.836;4.368;2023-06-22T12:27:24;25.52;;;22.83;;
35602;SDS011;21725;50.836;4.368;2023-06-22T12:30:25;28.70;;;23.38;;
35602;SDS011;21725;50.836;4.368;2023-06-22T12:33:26;31.13;;;25.63;;
35602;SDS011;21725;50.836;4.368;2023-06-22T12:36:27;30.50;;;24.48;;
35602;SDS011;21725;50.836;4.368;2023-06-22T12:39:27;31.23;;;24.52;;
35602;SDS011;21725;50.836;4.368;2023-06-22T12:42:28;32.03;;;25.83;;
35602;SDS011;21725;50.836;4.368;2023-06-22T12:45:30;32.08;;;27.25;;
35602;SDS011;21725;50.836;4.368;2023-06-22T12:48:33;32.85;;;26.90;;
35602;SDS011;21725;50.836;4.368;2023-06-22T12:51:41;31.92;;;28.45;;
35602;SDS011;21725;50.836;4.368;2023-06-22T12:54:43;37.60;;;29.55;;
35602;SDS011;21725;50.836;4.368;2023-06-22T12:57:44;35.75;;;30.48;;
35602;SDS011;21725;50.836;4.368;2023-06-22T13:00:44;38.97;;;31.67;;
35602;SDS011;21725;50.836;4.368;2023-06-22T13:03:45;42.45;;;31.55;;
35602;SDS011;21725;50.836;4.368;2023-06-22T13:06:46;38.88;;;32.67;;
35602;SDS011;21725;50.836;4.368;2023-06-22T13:09:47;35.80;;;30.80;;
35602;SDS011;21725;50.836;4.368;2023-06-22T13:12:51;41.92;;;33.45;;
35602;SDS011;21725;50.836;4.368;2023-06-22T13:15:54;40.33;;;33.53;;
35602;SDS011;21725;50.836;4.368;2023-06-22T13:18:55;46.05;;;35.33;;
35602;SDS011;21725;50.836;4.368;2023-06-22T13:21:56;40.75;;;32.60;;
35602;SDS011;21725;50.836;4.368;2023-06-22T13:24:57;44.47;;;34.50;;
35602;SDS011;21725;50.836;4.368;2023-06-22T13:27:58;41.35;;;35.33;;
35602;SDS011;21725;50.836;4.368;2023-06-22T13:30:59;41.53;;;34.00;;
35602;SDS011;21725;50.836;4.368;2023-06-22T13:34:00;44.95;;;35.28;;
35602;SDS011;21725;50.836;4.368;2023-06-22T13:37:00;42.67;;;33.67;;
35602;SDS011;21725;50.836;4.368;2023-06-22T13:40:01;41.28;;;32.53;;
35602;SDS011;21725;50.836;4.368;2023-06-22T13:43:05;41.00;;;33.60;;
35602;SDS011;21725;50.836;4.368;2023-06-22T13:46:07;39.13;;;33.08;;
35602;SDS011;21725;50.836;4.368;2023-06-22T13:49:08;39.05;;;34.65;;
35602;SDS011;21725;50.836;4.368;2023-06-22T13:52:08;39.88;;;33.90;;
35602;SDS011;21725;50.836;4.368;2023-06-22T13:55:10;39.55;;;32.47;;
35602;SDS011;21725;50.836;4.368;2023-06-22T13:58:14;37.78;;;31.60;;
35602;SDS011;21725;50.836;4.368;2023-06-22T14:01:14;40.30;;;31.45;;
35602;SDS011;21725;50.836;4.368;2023-06-22T14:04:15;93.00;;;61.72;;
35602;SDS011;21725;50.836;4.368;2023-06-22T14:07:16;41.58;;;32.10;;
35602;SDS011;21725;50.836;4.368;2023-06-22T14:10:17;36.58;;;30.67;;
35602;SDS011;21725;50.836;4.368;2023-06-22T14:13:17;38.42;;;30.90;;
35602;SDS011;21725;50.836;4.368;2023-06-22T14:16:18;34.25;;;29.13;;
35602;SDS011;21725;50.836;4.368;2023-06-22T14:19:19;32.67;;;25.85;;
35602;SDS011;21725;50.836;4.368;2023-06-22T14:22:20;34.85;;;31.08;;
35602;SDS011;21725;50.836;4.368;2023-06-22T14:25:21;33.53;;;29.85;;
35602;SDS011;21725;50.836;4.368;2023-06-22T14:28:22;37.88;;;30.25;;
35602;SDS011;21725;50.836;4.368;2023-06-22T14:31:23;32.72;;;28.67;;
35602;SDS011;21725;50.836;4.368;2023-06-22T14:34:23;36.80;;;30.40;;
35602;SDS011;21725;50.836;4.368;2023-06-22T14:37:24;39.10;;;31.95;;
35602;SDS011;21725;50.836;4.368;2023-06-22T14:40:25;43.80;;;31.73;;
35602;SDS011;21725;50.836;4.368;2023-06-22T14:43:26;38.25;;;32.53;;
35602;SDS011;21725;50.836;4.368;2023-06-22T14:46:26;42.15;;;33.90;;
35602;SDS011;21725;50.836;4.368;2023-06-22T14:49:27;44.45;;;35.42;;
35602;SDS011;21725;50.836;4.368;2023-06-22T14:52:28;45.03;;;35.78;;
35602;SDS011;21725;50.836;4.368;2023-06-22T14:55:29;45.65;;;37.20;;
35602;SDS011;21725;50.836;4.368;2023-06-22T14:58:31;46.35;;;36.53;;
35602;SDS011;21725;50.836;4.368;2023-06-22T15:01:39;44.50;;;36.70;;
35602;SDS011;21725;50.836;4.368;2023-06-22T15:04:40;38.83;;;34.47;;
35602;SDS011;21725;50.836;4.368;2023-06-22T15:07:40;40.88;;;35.60;;
35602;SDS011;21725;50.836;4.368;2023-06-22T15:10:41;44.85;;;36.97;;
35602;SDS011;21725;50.836;4.368;2023-06-22T15:13:42;43.30;;;35.60;;
35602;SDS011;21725;50.836;4.368;2023-06-22T15:16:43;43.97;;;35.40;;
35602;SDS011;21725;50.836;4.368;2023-06-22T15:19:43;39.25;;;33.10;;
35602;SDS011;21725;50.836;4.368;2023-06-22T15:22:44;43.78;;;34.38;;
35602;SDS011;21725;50.836;4.368;2023-06-22T15:25:45;44.33;;;36.80;;
35602;SDS011;21725;50.836;4.368;2023-06-22T15:28:46;43.28;;;34.03;;
35602;SDS011;21725;50.836;4.368;2023-06-22T15:31:48;38.70;;;33.67;;
35602;SDS011;21725;50.836;4.368;2023-06-22T15:34:48;41.60;;;34.53;;
35602;SDS011;21725;50.836;4.368;2023-06-22T15:37:53;41.78;;;32.78;;
35602;SDS011;21725;50.836;4.368;2023-06-22T15:40:54;39.78;;;32.45;;
35602;SDS011;21725;50.836;4.368;2023-06-22T15:43:55;42.78;;;36.42;;
35602;SDS011;21725;50.836;4.368;2023-06-22T15:46:56;38.70;;;33.42;;
35602;SDS011;21725;50.836;4.368;2023-06-22T15:49:56;44.42;;;34.38;;
35602;SDS011;21725;50.836;4.368;2023-06-22T15:52:57;40.20;;;34.42;;
35602;SDS011;21725;50.836;4.368;2023-06-22T15:55:58;37.70;;;32.10;;
35602;SDS011;21725;50.836;4.368;2023-06-22T15:58:59;40.38;;;32.13;;
35602;SDS011;21725;50.836;4.368;2023-06-22T16:01:59;37.78;;;31.40;;
35602;SDS011;21725;50.836;4.368;2023-06-22T16:05:00;33.88;;;30.23;;
35602;SDS011;21725;50.836;4.368;2023-06-22T16:08:02;39.67;;;31.08;;
35602;SDS011;21725;50.836;4.368;2023-06-22T16:11:02;37.00;;;31.38;;
35602;SDS011;21725;50.836;4.368;2023-06-22T16:14:03;39.42;;;31.48;;
35602;SDS011;21725;50.836;4.368;2023-06-22T16:28:36;39.00;;;33.35;;
35602;SDS011;21725;50.836;4.368;2023-06-22T16:31:36;38.08;;;34.00;;
35602;SDS011;21725;50.836;4.368;2023-06-22T16:34:37;41.65;;;35.35;;
35602;SDS011;21725;50.836;4.368;2023-06-22T16:37:38;41.97;;;35.90;;
35602;SDS011;21725;50.836;4.368;2023-06-22T16:40:39;41.03;;;36.50;;
35602;SDS011;21725;50.836;4.368;2023-06-22T16:43:39;44.42;;;36.10;;
35602;SDS011;21725;50.836;4.368;2023-06-22T16:46:40;40.75;;;35.13;;
35602;SDS011;21725;50.836;4.368;2023-06-22T16:49:41;40.30;;;34.15;;
35602;SDS011;21725;50.836;4.368;2023-06-22T16:52:42;38.55;;;33.70;;
35602;SDS011;21725;50.836;4.368;2023-06-22T16:55:43;34.95;;;31.25;;
35602;SDS011;21725;50.836;4.368;2023-06-22T16:58:50;31.77;;;27.48;;
35602;SDS011;21725;50.836;4.368;2023-06-22T17:01:53;36.53;;;27.80;;
35602;SDS011;21725;50.836;4.368;2023-06-22T17:04:55;32.28;;;28.83;;
35602;SDS011;21725;50.836;4.368;2023-06-22T17:07:56;31.88;;;27.55;;
35602;SDS011;21725;50.836;4.368;2023-06-22T17:11:01;30.63;;;26.90;;
35602;SDS011;21725;50.836;4.368;2023-06-22T17:14:02;34.70;;;27.15;;
35602;SDS011;21725;50.836;4.368;2023-06-22T17:17:03;29.67;;;26.48;;
35602;SDS011;21725;50.836;4.368;2023-06-22T17:20:04;30.13;;;24.90;;
35602;SDS011;21725;50.836;4.368;2023-06-22T17:23:07;28.40;;;24.42;;
35602;SDS011;21725;50.836;4.368;2023-06-22T17:26:07;28.55;;;24.63;;
35602;SDS011;21725;50.836;4.368;2023-06-22T17:29:09;25.45;;;22.35;;
35602;SDS011;21725;50.836;4.368;2023-06-22T17:32:10;29.80;;;24.02;;
35602;SDS011;21725;50.836;4.368;2023-06-22T17:35:11;24.58;;;21.98;;
35602;SDS011;21725;50.836;4.368;2023-06-22T17:38:15;28.13;;;22.58;;
35602;SDS011;21725;50.836;4.368;2023-06-22T17:41:21;26.17;;;21.73;;
35602;SDS011;21725;50.836;4.368;2023-06-22T17:44:22;26.90;;;22.42;;
35602;SDS011;21725;50.836;4.368;2023-06-22T17:47:24;31.55;;;23.60;;
35602;SDS011;21725;50.836;4.368;2023-06-22T17:50:24;27.65;;;20.55;;
35602;SDS011;21725;50.836;4.368;2023-06-22T17:53:25;25.00;;;20.50;;
35602;SDS011;21725;50.836;4.368;2023-06-22T17:56:27;24.08;;;21.33;;
35602;SDS011;21725;50.836;4.368;2023-06-22T17:59:29;23.17;;;19.02;;
35602;SDS011;21725;50.836;4.368;2023-06-22T18:02:29;23.48;;;21.08;;
35602;SDS011;21725;50.836;4.368;2023-06-22T18:05:31;24.33;;;19.58;;
35602;SDS011;21725;50.836;4.368;2023-06-22T18:08:36;25.27;;;20.38;;
35602;SDS011;21725;50.836;4.368;2023-06-22T18:11:44;27.75;;;21.17;;
35602;SDS011;21725;50.836;4.368;2023-06-22T18:14:46;21.60;;;19.10;;
35602;SDS011;21725;50.836;4.368;2023-06-22T18:17:49;22.00;;;19.45;;
35602;SDS011;21725;50.836;4.368;2023-06-22T18:20:51;25.42;;;19.80;;
35602;SDS011;21725;50.836;4.368;2023-06-22T18:23:52;22.23;;;20.02;;